ETH319 HKJK-HAAB
Flight info
| Callsign | ETH319 |
|---|---|
| Flight time | 1h 24m |
| Altitude | 34000 |
| Route | NAVE2D LOTAS UM308 RUDOL/N0483F350 UM308 SHALA SHALA7A |
| Aircraft | B77W/H-SDE1E2E3FGHIJ2J3J4J5M1RWXY/LB1D1 |
Departure
| Time | 2026-05-05 08:38 |
|---|---|
| Airport | Jomo Kenyatta International Airport (HKJK) |
Arrival
| Time | 2026-05-05 10:02 |
|---|---|
| Airport | Addis Ababa Bole International Airport (HAAB) |
| Time | Latitude | Longitude | Altitude | Speed | Heading |
|---|---|---|---|---|---|
| 2026-05-05 08:01 | -1.32944 | 36.92332 | 5344 ft | 0 kts | 122° |
| 2026-05-05 08:29 | -1.32944 | 36.92333 | 5344 ft | 0 kts | 122° |
| 2026-05-05 08:29 | -1.32943 | 36.92331 | 5344 ft | 1 kts | 122° |
| 2026-05-05 08:30 | -1.32919 | 36.92289 | 5343 ft | 3 kts | 118° |
| 2026-05-05 08:30 | -1.32906 | 36.92268 | 5344 ft | 2 kts | 133° |
| 2026-05-05 08:30 | -1.32892 | 36.92259 | 5344 ft | 2 kts | 170° |
| 2026-05-05 08:30 | -1.32887 | 36.92259 | 5344 ft | 0 kts | 181° |
| 2026-05-05 08:33 | -1.32888 | 36.92259 | 5344 ft | 0 kts | 181° |
| 2026-05-05 08:33 | -1.32898 | 36.92258 | 5344 ft | 3 kts | 191° |
| 2026-05-05 08:34 | -1.32934 | 36.92244 | 5344 ft | 8 kts | 204° |
| 2026-05-05 08:34 | -1.32983 | 36.92229 | 5344 ft | 4 kts | 193° |
| 2026-05-05 08:34 | -1.33047 | 36.92220 | 5344 ft | 13 kts | 182° |
| 2026-05-05 08:34 | -1.33156 | 36.92236 | 5344 ft | 18 kts | 158° |
| 2026-05-05 08:35 | -1.33287 | 36.92281 | 5344 ft | 20 kts | 170° |
| 2026-05-05 08:35 | -1.33413 | 36.92313 | 5343 ft | 18 kts | 170° |
| 2026-05-05 08:35 | -1.33521 | 36.92248 | 5344 ft | 20 kts | 249° |
| 2026-05-05 08:35 | -1.33463 | 36.92157 | 5344 ft | 17 kts | 326° |
| 2026-05-05 08:36 | -1.33351 | 36.92077 | 5344 ft | 21 kts | 322° |
| 2026-05-05 08:36 | -1.33224 | 36.91985 | 5344 ft | 22 kts | 324° |
| 2026-05-05 08:36 | -1.33091 | 36.91887 | 5344 ft | 25 kts | 324° |
| 2026-05-05 08:36 | -1.32948 | 36.91783 | 5344 ft | 24 kts | 323° |
| 2026-05-05 08:37 | -1.32821 | 36.91690 | 5344 ft | 20 kts | 324° |
| 2026-05-05 08:37 | -1.32722 | 36.91687 | 5344 ft | 11 kts | 49° |
| 2026-05-05 08:37 | -1.32570 | 36.91887 | 5344 ft | 69 kts | 54° |
| 2026-05-05 08:37 | -1.32159 | 36.92462 | 5344 ft | 134 kts | 54° |
| 2026-05-05 08:38 | -1.31490 | 36.93377 | 5344 ft | 190 kts | 56° |
| 2026-05-05 08:38 | -1.30671 | 36.94519 | 5717 ft | 209 kts | 53° |
| 2026-05-05 08:38 | -1.29737 | 36.95638 | 6481 ft | 214 kts | 38° |
| 2026-05-05 08:38 | -1.28399 | 36.96183 | 7109 ft | 215 kts | 4° |
| 2026-05-05 08:39 | -1.26836 | 36.96076 | 7450 ft | 232 kts | 351° |
| 2026-05-05 08:39 | -1.25256 | 36.95773 | 8139 ft | 234 kts | 350° |
| 2026-05-05 08:39 | -1.23588 | 36.95457 | 8530 ft | 252 kts | 350° |
| 2026-05-05 08:39 | -1.21813 | 36.95124 | 8938 ft | 270 kts | 351° |
| 2026-05-05 08:40 | -1.19899 | 36.94764 | 9425 ft | 286 kts | 351° |
| 2026-05-05 08:40 | -1.17924 | 36.94393 | 10188 ft | 291 kts | 351° |
| 2026-05-05 08:40 | -1.15923 | 36.94016 | 10885 ft | 299 kts | 351° |
| 2026-05-05 08:40 | -1.13802 | 36.93618 | 11337 ft | 317 kts | 351° |
| 2026-05-05 08:41 | -1.11584 | 36.93201 | 11816 ft | 333 kts | 350° |
| 2026-05-05 08:41 | -1.09235 | 36.92760 | 12290 ft | 349 kts | 350° |
| 2026-05-05 08:41 | -1.06817 | 36.92305 | 12787 ft | 364 kts | 350° |
| 2026-05-05 08:41 | -1.04275 | 36.91827 | 13301 ft | 378 kts | 350° |
| 2026-05-05 08:42 | -1.01662 | 36.91335 | 13979 ft | 385 kts | 350° |
| 2026-05-05 08:42 | -0.99003 | 36.90918 | 14773 ft | 388 kts | 356° |
| 2026-05-05 08:42 | -0.96265 | 36.90941 | 15489 ft | 392 kts | 5° |
| 2026-05-05 08:42 | -0.93524 | 36.91208 | 16190 ft | 398 kts | 6° |
| 2026-05-05 08:43 | -0.90773 | 36.91489 | 16895 ft | 403 kts | 6° |
| 2026-05-05 08:43 | -0.87933 | 36.91780 | 17587 ft | 408 kts | 6° |
| 2026-05-05 08:43 | -0.85109 | 36.92069 | 18248 ft | 413 kts | 6° |
| 2026-05-05 08:43 | -0.82204 | 36.92367 | 18910 ft | 418 kts | 7° |
| 2026-05-05 08:44 | -0.79316 | 36.92663 | 19535 ft | 422 kts | 7° |
| 2026-05-05 08:44 | -0.76385 | 36.92963 | 20154 ft | 427 kts | 7° |
| 2026-05-05 08:44 | -0.73412 | 36.93268 | 20765 ft | 431 kts | 7° |
| 2026-05-05 08:44 | -0.70371 | 36.93580 | 21361 ft | 436 kts | 7° |
| 2026-05-05 08:45 | -0.67351 | 36.93889 | 21947 ft | 440 kts | 7° |
| 2026-05-05 08:45 | -0.64285 | 36.94204 | 22514 ft | 444 kts | 7° |
| 2026-05-05 08:45 | -0.61199 | 36.94520 | 23104 ft | 448 kts | 7° |
| 2026-05-05 08:45 | -0.58066 | 36.94841 | 23708 ft | 451 kts | 7° |
| 2026-05-05 08:46 | -0.54950 | 36.95161 | 24292 ft | 454 kts | 7° |
| 2026-05-05 08:46 | -0.51777 | 36.95486 | 24853 ft | 458 kts | 7° |
| 2026-05-05 08:46 | -0.48579 | 36.95814 | 25411 ft | 462 kts | 7° |
| 2026-05-05 08:46 | -0.45360 | 36.96144 | 25958 ft | 466 kts | 7° |
| 2026-05-05 08:47 | -0.42108 | 36.96478 | 26520 ft | 470 kts | 7° |
| 2026-05-05 08:47 | -0.38841 | 36.96812 | 27061 ft | 474 kts | 7° |
| 2026-05-05 08:47 | -0.35568 | 36.97148 | 27579 ft | 478 kts | 7° |
| 2026-05-05 08:47 | -0.32218 | 36.97491 | 28108 ft | 481 kts | 7° |
| 2026-05-05 08:48 | -0.28881 | 36.97833 | 28617 ft | 485 kts | 7° |
| 2026-05-05 08:48 | -0.25481 | 36.98182 | 29147 ft | 489 kts | 7° |
| 2026-05-05 08:48 | -0.22118 | 36.98526 | 29726 ft | 490 kts | 7° |
| 2026-05-05 08:48 | -0.18716 | 36.98875 | 30500 ft | 488 kts | 7° |
| 2026-05-05 08:49 | -0.15345 | 36.99220 | 31406 ft | 481 kts | 7° |
| 2026-05-05 08:49 | -0.12077 | 36.99554 | 32285 ft | 475 kts | 7° |
| 2026-05-05 08:49 | -0.08799 | 36.99889 | 33079 ft | 471 kts | 7° |
| 2026-05-05 08:49 | -0.05534 | 37.00223 | 33686 ft | 471 kts | 7° |
| 2026-05-05 08:50 | -0.02243 | 37.00561 | 34204 ft | 472 kts | 7° |
| 2026-05-05 08:50 | 0.01033 | 37.00897 | 34341 ft | 475 kts | 7° |
| 2026-05-05 08:50 | 0.04357 | 37.01237 | 34351 ft | 473 kts | 7° |
| 2026-05-05 08:51 | 0.10946 | 37.01912 | 34346 ft | 470 kts | 7° |
| 2026-05-05 08:51 | 0.17571 | 37.02591 | 34334 ft | 471 kts | 7° |
| 2026-05-05 08:52 | 0.24126 | 37.03262 | 34319 ft | 472 kts | 7° |
| 2026-05-05 08:52 | 0.30699 | 37.03936 | 34323 ft | 471 kts | 7° |
| 2026-05-05 08:53 | 0.37269 | 37.04609 | 34317 ft | 472 kts | 7° |
| 2026-05-05 08:53 | 0.43920 | 37.05290 | 34308 ft | 471 kts | 7° |
| 2026-05-05 08:54 | 0.50491 | 37.05964 | 34301 ft | 472 kts | 7° |
| 2026-05-05 08:54 | 0.57015 | 37.06632 | 34299 ft | 472 kts | 7° |
| 2026-05-05 08:55 | 0.63602 | 37.07307 | 34262 ft | 471 kts | 7° |
| 2026-05-05 08:55 | 0.70148 | 37.07978 | 34240 ft | 473 kts | 7° |
| 2026-05-05 08:56 | 0.76709 | 37.08650 | 34223 ft | 472 kts | 7° |
| 2026-05-05 08:56 | 0.83283 | 37.09324 | 34218 ft | 473 kts | 7° |
| 2026-05-05 08:57 | 0.89827 | 37.09994 | 34216 ft | 473 kts | 8° |
| 2026-05-05 08:57 | 0.96387 | 37.10667 | 34216 ft | 473 kts | 7° |
| 2026-05-05 08:58 | 1.02947 | 37.11339 | 34219 ft | 473 kts | 8° |
| 2026-05-05 08:58 | 1.09508 | 37.12012 | 34232 ft | 472 kts | 7° |
| 2026-05-05 08:59 | 1.16120 | 37.12690 | 34240 ft | 473 kts | 7° |
| 2026-05-05 08:59 | 1.22661 | 37.13360 | 34246 ft | 472 kts | 7° |
| 2026-05-05 09:00 | 1.29252 | 37.14036 | 34250 ft | 473 kts | 7° |
| 2026-05-05 09:00 | 1.35786 | 37.14706 | 34229 ft | 473 kts | 7° |
| 2026-05-05 09:01 | 1.42364 | 37.15380 | 34210 ft | 473 kts | 7° |
| 2026-05-05 09:01 | 1.48917 | 37.16053 | 34192 ft | 472 kts | 7° |
| 2026-05-05 09:02 | 1.55486 | 37.16726 | 34200 ft | 472 kts | 7° |
| 2026-05-05 09:02 | 1.62027 | 37.17397 | 34219 ft | 473 kts | 7° |
| 2026-05-05 09:03 | 1.68589 | 37.18070 | 34233 ft | 472 kts | 7° |
| 2026-05-05 09:03 | 1.75186 | 37.18747 | 34246 ft | 473 kts | 7° |
| 2026-05-05 09:04 | 1.81728 | 37.19418 | 34230 ft | 473 kts | 7° |
| 2026-05-05 09:04 | 1.88301 | 37.20092 | 34193 ft | 472 kts | 7° |
| 2026-05-05 09:05 | 1.94859 | 37.20765 | 34158 ft | 472 kts | 7° |
| 2026-05-05 09:05 | 2.01439 | 37.21440 | 34128 ft | 472 kts | 7° |
| 2026-05-05 09:06 | 2.07975 | 37.22111 | 34112 ft | 472 kts | 7° |
| 2026-05-05 09:06 | 2.14525 | 37.22784 | 34108 ft | 472 kts | 7° |
| 2026-05-05 09:07 | 2.21122 | 37.23461 | 34101 ft | 472 kts | 7° |
| 2026-05-05 09:07 | 2.27642 | 37.24130 | 34090 ft | 472 kts | 7° |
| 2026-05-05 09:08 | 2.34217 | 37.24806 | 34085 ft | 472 kts | 7° |
| 2026-05-05 09:08 | 2.40835 | 37.25486 | 34072 ft | 490 kts | 7° |
| 2026-05-05 09:08 | 2.44306 | 37.25843 | 34068 ft | 501 kts | 7° |
| 2026-05-05 09:09 | 2.47802 | 37.26203 | 34068 ft | 506 kts | 7° |
| 2026-05-05 09:09 | 2.54840 | 37.26926 | 34065 ft | 505 kts | 7° |
| 2026-05-05 09:10 | 2.61822 | 37.27643 | 34058 ft | 504 kts | 7° |
| 2026-05-05 09:10 | 2.68840 | 37.28364 | 34051 ft | 505 kts | 7° |
| 2026-05-05 09:11 | 2.75852 | 37.29084 | 34052 ft | 504 kts | 7° |
| 2026-05-05 09:11 | 2.82884 | 37.29807 | 34038 ft | 504 kts | 7° |
| 2026-05-05 09:12 | 2.89887 | 37.30527 | 34037 ft | 504 kts | 7° |
| 2026-05-05 09:12 | 2.96918 | 37.31250 | 34032 ft | 503 kts | 7° |
| 2026-05-05 09:13 | 3.03922 | 37.31970 | 34033 ft | 503 kts | 7° |
| 2026-05-05 09:13 | 3.10894 | 37.32687 | 34033 ft | 504 kts | 7° |
| 2026-05-05 09:14 | 3.17896 | 37.33407 | 34037 ft | 504 kts | 7° |
| 2026-05-05 09:14 | 3.24872 | 37.34125 | 34042 ft | 503 kts | 7° |
| 2026-05-05 09:15 | 3.31862 | 37.34844 | 34045 ft | 502 kts | 7° |
| 2026-05-05 09:15 | 3.38826 | 37.35561 | 34056 ft | 502 kts | 7° |
| 2026-05-05 09:16 | 3.45806 | 37.36280 | 34057 ft | 502 kts | 7° |
| 2026-05-05 09:16 | 3.52784 | 37.36998 | 34061 ft | 502 kts | 7° |
| 2026-05-05 09:17 | 3.59751 | 37.37716 | 34062 ft | 503 kts | 7° |
| 2026-05-05 09:17 | 3.66722 | 37.38434 | 34069 ft | 502 kts | 7° |
| 2026-05-05 09:18 | 3.73694 | 37.39153 | 34069 ft | 502 kts | 7° |
| 2026-05-05 09:18 | 3.80660 | 37.39871 | 34071 ft | 502 kts | 7° |
| 2026-05-05 09:19 | 3.87612 | 37.40588 | 34081 ft | 501 kts | 6° |
| 2026-05-05 09:19 | 3.94579 | 37.41307 | 34089 ft | 501 kts | 7° |
| 2026-05-05 09:20 | 4.01465 | 37.42325 | 34093 ft | 500 kts | 15° |
| 2026-05-05 09:20 | 4.08232 | 37.44136 | 34099 ft | 501 kts | 15° |
| 2026-05-05 09:21 | 4.14997 | 37.45972 | 34109 ft | 500 kts | 15° |
| 2026-05-05 09:21 | 4.21747 | 37.47802 | 34111 ft | 501 kts | 16° |
| 2026-05-05 09:22 | 4.28481 | 37.49626 | 34124 ft | 501 kts | 15° |
| 2026-05-05 09:22 | 4.35233 | 37.51455 | 34124 ft | 501 kts | 15° |
| 2026-05-05 09:23 | 4.41943 | 37.53272 | 34136 ft | 501 kts | 15° |
| 2026-05-05 09:23 | 4.48741 | 37.55113 | 34141 ft | 503 kts | 15° |
| 2026-05-05 09:24 | 4.55520 | 37.56949 | 34155 ft | 502 kts | 16° |
| 2026-05-05 09:24 | 4.62254 | 37.58773 | 34166 ft | 502 kts | 15° |
| 2026-05-05 09:25 | 4.69056 | 37.60617 | 34182 ft | 504 kts | 16° |
| 2026-05-05 09:25 | 4.75811 | 37.62447 | 34177 ft | 503 kts | 15° |
| 2026-05-05 09:26 | 4.82624 | 37.64294 | 34195 ft | 503 kts | 15° |
| 2026-05-05 09:26 | 4.89414 | 37.66135 | 34191 ft | 505 kts | 15° |
| 2026-05-05 09:27 | 4.96227 | 37.67983 | 34205 ft | 504 kts | 15° |
| 2026-05-05 09:27 | 5.03052 | 37.69833 | 34216 ft | 506 kts | 15° |
| 2026-05-05 09:28 | 5.09861 | 37.71681 | 34196 ft | 506 kts | 15° |
| 2026-05-05 09:28 | 5.16670 | 37.73528 | 34200 ft | 505 kts | 15° |
| 2026-05-05 09:29 | 5.23461 | 37.75371 | 34191 ft | 506 kts | 15° |
| 2026-05-05 09:29 | 5.30252 | 37.77215 | 34220 ft | 505 kts | 15° |
| 2026-05-05 09:30 | 5.37087 | 37.79071 | 34218 ft | 506 kts | 15° |
| 2026-05-05 09:30 | 5.43864 | 37.80911 | 34247 ft | 506 kts | 15° |
| 2026-05-05 09:31 | 5.50750 | 37.82782 | 34256 ft | 508 kts | 14° |
| 2026-05-05 09:31 | 5.57584 | 37.84639 | 34276 ft | 508 kts | 15° |
| 2026-05-05 09:32 | 5.64451 | 37.86505 | 34272 ft | 513 kts | 15° |
| 2026-05-05 09:32 | 5.71363 | 37.88384 | 34273 ft | 512 kts | 15° |
| 2026-05-05 09:33 | 5.78281 | 37.90266 | 34276 ft | 514 kts | 15° |
| 2026-05-05 09:33 | 5.85182 | 37.92142 | 34263 ft | 515 kts | 15° |
| 2026-05-05 09:34 | 5.92116 | 37.94029 | 34262 ft | 513 kts | 15° |
| 2026-05-05 09:34 | 5.99019 | 37.95908 | 34254 ft | 514 kts | 15° |
| 2026-05-05 09:35 | 6.05997 | 37.97807 | 34256 ft | 514 kts | 15° |
| 2026-05-05 09:35 | 6.16389 | 38.00637 | 34292 ft | 514 kts | 15° |
| 2026-05-05 09:36 | 6.23353 | 38.02534 | 34298 ft | 515 kts | 15° |
| 2026-05-05 09:36 | 6.30411 | 38.04457 | 34301 ft | 515 kts | 15° |
| 2026-05-05 09:37 | 6.37359 | 38.06350 | 34291 ft | 514 kts | 15° |
| 2026-05-05 09:37 | 6.44295 | 38.08241 | 34294 ft | 513 kts | 15° |
| 2026-05-05 09:38 | 6.51240 | 38.10135 | 34275 ft | 513 kts | 15° |
| 2026-05-05 09:38 | 6.58176 | 38.12019 | 34297 ft | 512 kts | 15° |
| 2026-05-05 09:39 | 6.65092 | 38.13891 | 34302 ft | 513 kts | 15° |
| 2026-05-05 09:39 | 6.71996 | 38.15760 | 34332 ft | 513 kts | 15° |
| 2026-05-05 09:40 | 6.78930 | 38.17639 | 34342 ft | 512 kts | 15° |
| 2026-05-05 09:40 | 6.85818 | 38.19506 | 34357 ft | 513 kts | 14° |
| 2026-05-05 09:41 | 6.92741 | 38.21382 | 34362 ft | 513 kts | 14° |
| 2026-05-05 09:41 | 6.99661 | 38.23259 | 34361 ft | 511 kts | 15° |
| 2026-05-05 09:42 | 7.03085 | 38.24188 | 34376 ft | 497 kts | 14° |
| 2026-05-05 09:42 | 7.06401 | 38.25088 | 34378 ft | 486 kts | 15° |
| 2026-05-05 09:42 | 7.12923 | 38.26858 | 34391 ft | 485 kts | 14° |
| 2026-05-05 09:43 | 7.19523 | 38.28649 | 34390 ft | 485 kts | 15° |
| 2026-05-05 09:43 | 7.26092 | 38.30433 | 34406 ft | 484 kts | 14° |
| 2026-05-05 09:44 | 7.32638 | 38.32211 | 34403 ft | 484 kts | 15° |
| 2026-05-05 09:44 | 7.39161 | 38.33983 | 34398 ft | 484 kts | 14° |
| 2026-05-05 09:45 | 7.45675 | 38.35753 | 34400 ft | 484 kts | 14° |
| 2026-05-05 09:45 | 7.48917 | 38.36636 | 34170 ft | 478 kts | 15° |
| 2026-05-05 09:45 | 7.52116 | 38.37550 | 33290 ft | 481 kts | 15° |
| 2026-05-05 09:46 | 7.55319 | 38.38482 | 32459 ft | 482 kts | 16° |
| 2026-05-05 09:46 | 7.58540 | 38.39418 | 31682 ft | 484 kts | 16° |
| 2026-05-05 09:46 | 7.61777 | 38.40358 | 30947 ft | 483 kts | 16° |
| 2026-05-05 09:46 | 7.65016 | 38.41297 | 30499 ft | 477 kts | 16° |
| 2026-05-05 09:47 | 7.68186 | 38.42216 | 30022 ft | 471 kts | 16° |
| 2026-05-05 09:47 | 7.71352 | 38.43134 | 29500 ft | 470 kts | 16° |
| 2026-05-05 09:47 | 7.74520 | 38.44052 | 28971 ft | 481 kts | 16° |
| 2026-05-05 09:47 | 7.77773 | 38.44994 | 28419 ft | 482 kts | 16° |
| 2026-05-05 09:48 | 7.80970 | 38.45920 | 27883 ft | 479 kts | 16° |
| 2026-05-05 09:48 | 7.84161 | 38.46845 | 27334 ft | 475 kts | 16° |
| 2026-05-05 09:48 | 7.87312 | 38.47757 | 26790 ft | 471 kts | 16° |
| 2026-05-05 09:48 | 7.90459 | 38.48669 | 26236 ft | 467 kts | 16° |
| 2026-05-05 09:49 | 7.93560 | 38.49567 | 25687 ft | 463 kts | 16° |
| 2026-05-05 09:49 | 7.96683 | 38.50473 | 25124 ft | 459 kts | 16° |
| 2026-05-05 09:49 | 7.99737 | 38.51348 | 24568 ft | 456 kts | 14° |
| 2026-05-05 09:49 | 8.02828 | 38.51885 | 24028 ft | 452 kts | 5° |
| 2026-05-05 09:50 | 8.05973 | 38.52086 | 23488 ft | 448 kts | 3° |
| 2026-05-05 09:50 | 8.09092 | 38.52243 | 22937 ft | 444 kts | 3° |
| 2026-05-05 09:50 | 8.12161 | 38.52396 | 22390 ft | 441 kts | 3° |
| 2026-05-05 09:50 | 8.15225 | 38.52548 | 21856 ft | 437 kts | 3° |
| 2026-05-05 09:51 | 8.18264 | 38.52699 | 21316 ft | 434 kts | 3° |
| 2026-05-05 09:51 | 8.21288 | 38.52850 | 20772 ft | 431 kts | 4° |
| 2026-05-05 09:51 | 8.24246 | 38.52998 | 20234 ft | 428 kts | 4° |
| 2026-05-05 09:51 | 8.27245 | 38.53149 | 19779 ft | 422 kts | 4° |
| 2026-05-05 09:52 | 8.30127 | 38.53292 | 19641 ft | 407 kts | 4° |
| 2026-05-05 09:52 | 8.32896 | 38.53431 | 19577 ft | 391 kts | 4° |
| 2026-05-05 09:52 | 8.35581 | 38.53565 | 19530 ft | 375 kts | 4° |
| 2026-05-05 09:52 | 8.38144 | 38.53693 | 19464 ft | 358 kts | 4° |
| 2026-05-05 09:53 | 8.40560 | 38.53814 | 19418 ft | 342 kts | 4° |
| 2026-05-05 09:53 | 8.42930 | 38.53934 | 19273 ft | 330 kts | 5° |
| 2026-05-05 09:53 | 8.45195 | 38.54048 | 18888 ft | 328 kts | 5° |
| 2026-05-05 09:53 | 8.47500 | 38.54165 | 18412 ft | 328 kts | 5° |
| 2026-05-05 09:54 | 8.49773 | 38.54280 | 17986 ft | 327 kts | 5° |
| 2026-05-05 09:54 | 8.52040 | 38.54394 | 17581 ft | 324 kts | 5° |
| 2026-05-05 09:54 | 8.54293 | 38.54507 | 17156 ft | 322 kts | 5° |
| 2026-05-05 09:54 | 8.56551 | 38.54621 | 16481 ft | 330 kts | 6° |
| 2026-05-05 09:55 | 8.58874 | 38.54739 | 15770 ft | 336 kts | 6° |
| 2026-05-05 09:55 | 8.61112 | 38.54848 | 15430 ft | 311 kts | 6° |
| 2026-05-05 09:55 | 8.63246 | 38.54955 | 14751 ft | 304 kts | 6° |
| 2026-05-05 09:55 | 8.65357 | 38.55061 | 14018 ft | 299 kts | 6° |
| 2026-05-05 09:56 | 8.67413 | 38.55165 | 13278 ft | 295 kts | 6° |
| 2026-05-05 09:56 | 8.69443 | 38.55268 | 12506 ft | 293 kts | 6° |
| 2026-05-05 09:56 | 8.71453 | 38.55508 | 11700 ft | 289 kts | 18° |
| 2026-05-05 09:56 | 8.73280 | 38.56249 | 10927 ft | 282 kts | 33° |
| 2026-05-05 09:57 | 8.74818 | 38.57443 | 10553 ft | 274 kts | 43° |
| 2026-05-05 09:57 | 8.76219 | 38.58726 | 10503 ft | 270 kts | 44° |
| 2026-05-05 09:57 | 8.77587 | 38.60001 | 10493 ft | 269 kts | 44° |
| 2026-05-05 09:57 | 8.78957 | 38.61292 | 10492 ft | 270 kts | 44° |
| 2026-05-05 09:58 | 8.80346 | 38.62604 | 10481 ft | 272 kts | 44° |
| 2026-05-05 09:58 | 8.81743 | 38.63925 | 10477 ft | 273 kts | 44° |
| 2026-05-05 09:58 | 8.83128 | 38.65235 | 10479 ft | 273 kts | 44° |
| 2026-05-05 09:58 | 8.84490 | 38.66521 | 10458 ft | 255 kts | 44° |
| 2026-05-05 09:59 | 8.85717 | 38.67681 | 10444 ft | 226 kts | 44° |
| 2026-05-05 09:59 | 8.86852 | 38.68754 | 10456 ft | 219 kts | 44° |
| 2026-05-05 09:59 | 8.87968 | 38.69811 | 10472 ft | 220 kts | 44° |
| 2026-05-05 09:59 | 8.89103 | 38.70884 | 10471 ft | 220 kts | 44° |
| 2026-05-05 10:00 | 8.90328 | 38.71782 | 10409 ft | 219 kts | 28° |
| 2026-05-05 10:00 | 8.91760 | 38.72342 | 9997 ft | 237 kts | 18° |
| 2026-05-05 10:00 | 8.93448 | 38.72776 | 9846 ft | 252 kts | 10° |
| 2026-05-05 10:00 | 8.95120 | 38.73082 | 9478 ft | 232 kts | 27° |
| 2026-05-05 10:01 | 8.96088 | 38.74182 | 9119 ft | 208 kts | 73° |
| 2026-05-05 10:01 | 8.96449 | 38.75591 | 8418 ft | 214 kts | 75° |
| 2026-05-05 10:01 | 8.96843 | 38.77036 | 7856 ft | 204 kts | 74° |
| 2026-05-05 10:01 | 8.97218 | 38.78305 | 7656 ft | 175 kts | 73° |
| 2026-05-05 10:02 | 8.97534 | 38.79367 | 7636 ft | 135 kts | 72° |
| 2026-05-05 10:02 | 8.97760 | 38.80133 | 7637 ft | 92 kts | 74° |
| 2026-05-05 10:02 | 8.97883 | 38.80545 | 7625 ft | 36 kts | 68° |
| 2026-05-05 10:02 | 8.97955 | 38.80649 | 7625 ft | 11 kts | 46° |
| 2026-05-05 10:03 | 8.98009 | 38.80700 | 7627 ft | 10 kts | 41° |
| 2026-05-05 10:03 | 8.98072 | 38.80735 | 7630 ft | 10 kts | 357° |
| 2026-05-05 10:03 | 8.98125 | 38.80679 | 7632 ft | 11 kts | 320° |
| 2026-05-05 10:03 | 8.98207 | 38.80689 | 7632 ft | 12 kts | 24° |
| 2026-05-05 10:04 | 8.98261 | 38.80656 | 7631 ft | 11 kts | 271° |
| 2026-05-05 10:04 | 8.98245 | 38.80569 | 7632 ft | 12 kts | 254° |
| 2026-05-05 10:04 | 8.98220 | 38.80490 | 7634 ft | 10 kts | 251° |
| 2026-05-05 10:04 | 8.98197 | 38.80420 | 7635 ft | 8 kts | 252° |
| 2026-05-05 10:05 | 8.98189 | 38.80398 | 7636 ft | 3 kts | 251° |
| 2026-05-05 10:05 | 8.98179 | 38.80366 | 7637 ft | 5 kts | 250° |
| 2026-05-05 10:05 | 8.98168 | 38.80326 | 7638 ft | 0 kts | 256° |
| 2026-05-05 10:05 | 8.98167 | 38.80325 | 7638 ft | 0 kts | 256° |
| 2026-05-05 10:06 | 8.98160 | 38.80312 | 7638 ft | 4 kts | 228° |
| 2026-05-05 10:06 | 8.98130 | 38.80303 | 7639 ft | 5 kts | 176° |
| 2026-05-05 10:06 | 8.98089 | 38.80312 | 7639 ft | 6 kts | 165° |
| 2026-05-05 10:06 | 8.98041 | 38.80323 | 7639 ft | 7 kts | 183° |
| 2026-05-05 10:07 | 8.98003 | 38.80295 | 7640 ft | 6 kts | 240° |
| 2026-05-05 10:07 | 8.97987 | 38.80253 | 7641 ft | 6 kts | 252° |
| 2026-05-05 10:07 | 8.97987 | 38.80196 | 7643 ft | 9 kts | 301° |
| 2026-05-05 10:07 | 8.98054 | 38.80156 | 7644 ft | 12 kts | 340° |
| 2026-05-05 10:08 | 8.98145 | 38.80125 | 7642 ft | 15 kts | 342° |
| 2026-05-05 10:08 | 8.98258 | 38.80088 | 7638 ft | 18 kts | 343° |
| 2026-05-05 10:08 | 8.98337 | 38.80065 | 7634 ft | 0 kts | 341° |